createdAt,value
2019-05-10T00:00:15.260Z,99923.13
2019-05-10T00:03:37.272Z,99927.92
2019-05-10T00:06:59.303Z,99929.78
2019-05-10T00:10:02.606Z,99925.45
2019-05-10T00:13:15.429Z,99927.31
2019-05-10T00:16:19.720Z,99923.81
2019-05-10T00:19:23.993Z,99922.48
2019-05-10T00:22:28.280Z,99909.36
2019-05-10T00:25:32.559Z,99919.74
2019-05-10T00:28:36.864Z,99915.53
2019-05-10T00:31:41.126Z,99922.98
2019-05-10T00:34:45.402Z,99922.98
2019-05-10T00:37:49.698Z,99911.54
2019-05-10T00:40:53.956Z,99918.61
2019-05-10T00:43:58.271Z,99927.40
2019-05-10T00:47:02.640Z,99935.57
2019-05-10T00:50:07.045Z,99935.57
2019-05-10T00:53:11.316Z,99934.12
2019-05-10T00:56:15.612Z,99934.12
2019-05-10T00:59:19.881Z,99941.30
2019-05-10T01:02:24.280Z,99932.26
2019-05-10T01:05:28.546Z,99938.65
2019-05-10T01:08:32.865Z,99942.45
2019-05-10T01:11:37.161Z,99943.28
2019-05-10T01:14:41.524Z,99944.69
2019-05-10T01:17:45.800Z,99950.28
2019-05-10T01:20:50.088Z,99949.67
2019-05-10T01:23:54.432Z,99957.66
2019-05-10T01:26:58.694Z,99961.73
2019-05-10T01:30:02.986Z,99954.27
2019-05-10T01:33:07.272Z,99951.80
2019-05-10T01:36:11.567Z,99947.95
2019-05-10T01:39:15.841Z,99954.60
2019-05-10T01:42:20.130Z,99953.80
2019-05-10T01:45:24.404Z,99952.86
2019-05-10T01:48:28.715Z,99946.27
2019-05-10T01:51:33.018Z,99954.27
2019-05-10T01:54:37.293Z,99959.69
2019-05-10T01:57:41.589Z,99965.95
2019-05-10T02:00:45.980Z,99963.86
2019-05-10T02:03:50.235Z,99973.42
2019-05-10T02:06:54.523Z,99975.39
2019-05-10T02:09:58.819Z,99974.59
2019-05-10T02:13:03.091Z,99987.00
2019-05-10T02:16:07.403Z,99985.92
2019-05-10T02:19:11.683Z,99988.80
2019-05-10T02:22:15.979Z,99987.01
2019-05-10T02:25:20.268Z,99983.02
2019-05-10T02:28:24.545Z,99973.36
2019-05-10T02:31:28.848Z,99979.28
2019-05-10T02:34:33.137Z,99987.88
2019-05-10T02:37:37.425Z,99990.02
2019-05-10T02:40:41.700Z,99991.45
2019-05-10T02:43:45.973Z,99991.77
2019-05-10T02:46:50.239Z,100001.74
2019-05-10T02:49:54.506Z,99998.00
2019-05-10T02:52:58.774Z,100007.17
2019-05-10T02:56:03.862Z,100007.17
2019-05-10T02:59:09.748Z,100009.89
2019-05-10T03:02:14.555Z,100011.78
2019-05-10T03:05:18.830Z,100015.88
2019-05-10T03:08:24.613Z,100025.92
2019-05-10T03:11:32.218Z,100019.34
2019-05-10T03:14:42.121Z,100018.62
2019-05-10T03:17:47.715Z,100015.23
2019-05-10T03:20:54.527Z,100018.34
2019-05-10T03:23:58.860Z,100034.24
2019-05-10T03:27:03.157Z,100029.09
2019-05-10T03:30:07.688Z,100038.80
2019-05-10T03:33:11.992Z,100034.77
2019-05-10T03:36:16.263Z,100041.64
2019-05-10T03:39:20.754Z,100031.98
2019-05-10T03:42:25.031Z,100034.52
2019-05-10T03:45:29.313Z,100040.09
2019-05-10T03:48:33.601Z,100038.14
2019-05-10T03:51:37.911Z,100036.55
2019-05-10T03:54:42.320Z,100040.30
2019-05-10T03:57:46.594Z,100050.17
2019-05-10T04:00:50.893Z,100053.50
2019-05-10T04:03:55.168Z,100054.69
2019-05-10T04:06:59.460Z,100057.86
2019-05-10T04:10:04.104Z,100058.31
2019-05-10T04:13:08.422Z,100057.67
2019-05-10T04:16:12.855Z,100058.46
2019-05-10T04:19:17.258Z,100063.32
2019-05-10T04:22:21.708Z,100067.30
2019-05-10T04:25:26.142Z,100063.83
2019-05-10T04:28:30.730Z,100067.09
2019-05-10T04:31:35.422Z,100069.29
2019-05-10T04:34:39.714Z,100069.66
2019-05-10T04:37:44.014Z,100073.64
2019-05-10T04:40:48.344Z,100070.05
2019-05-10T04:43:52.653Z,100071.37
2019-05-10T04:46:56.958Z,100072.13
2019-05-10T04:50:01.255Z,100074.23
2019-05-10T04:53:05.663Z,100077.94
2019-05-10T04:56:09.993Z,100089.13
2019-05-10T04:59:14.659Z,100085.67
2019-05-10T05:02:22.080Z,100089.57
2019-05-10T05:05:25.004Z,100092.72
2019-05-10T05:08:29.291Z,100092.95
2019-05-10T05:11:33.610Z,100092.16
2019-05-10T05:14:37.894Z,100091.70
2019-05-10T05:17:42.182Z,100096.31
2019-05-10T05:20:46.488Z,100094.45
2019-05-10T05:23:50.811Z,100098.02
2019-05-10T05:26:55.127Z,100096.33
2019-05-10T05:29:59.428Z,100098.82
2019-05-10T05:33:03.737Z,100101.00
2019-05-10T05:36:08.048Z,100100.42
2019-05-10T05:39:12.374Z,100092.58
2019-05-10T05:42:16.664Z,100097.91
2019-05-10T05:45:21.001Z,100095.77
2019-05-10T05:48:39.507Z,100097.77
2019-05-10T05:51:31.533Z,100104.41
2019-05-10T05:54:35.861Z,100102.05
2019-05-10T05:57:40.234Z,100102.05
2019-05-10T06:00:46.623Z,100108.30
2019-05-10T06:03:50.724Z,100108.79
2019-05-10T06:06:59.026Z,100108.16
2019-05-10T06:10:02.026Z,100113.41
2019-05-10T06:13:06.340Z,100113.20
2019-05-10T06:16:12.853Z,100116.78
2019-05-10T06:19:20.553Z,100119.53
2019-05-10T06:22:22.688Z,100133.27
2019-05-10T06:25:39.693Z,100126.90
2019-05-10T06:28:57.352Z,100137.16
2019-05-10T06:31:39.063Z,100125.50
2019-05-10T06:34:43.388Z,100143.61
2019-05-10T06:37:47.657Z,100148.84
2019-05-10T06:40:51.936Z,100153.22
2019-05-10T06:43:56.213Z,100153.22
2019-05-10T06:47:02.205Z,100147.11
2019-05-10T06:50:08.541Z,100154.97
2019-05-10T06:53:12.851Z,100154.97
2019-05-10T06:56:17.203Z,100155.30
2019-05-10T06:59:25.057Z,100156.33
2019-05-10T07:02:31.840Z,100152.16
2019-05-10T07:05:33.623Z,100154.98
2019-05-10T07:08:44.415Z,100154.52
2019-05-10T07:11:43.984Z,100162.67
2019-05-10T07:14:48.371Z,100166.17
2019-05-10T07:17:52.725Z,100161.83
2019-05-10T07:21:00.753Z,100159.70
2019-05-10T07:24:03.186Z,100165.24
2019-05-10T07:27:07.506Z,100168.23
2019-05-10T07:30:12.004Z,100169.28
2019-05-10T07:33:16.290Z,100170.78
2019-05-10T07:36:26.997Z,100178.64
2019-05-10T07:39:26.622Z,100181.52
2019-05-10T07:42:30.893Z,100167.36
2019-05-10T07:45:35.492Z,100184.88
2019-05-10T07:48:41.093Z,100187.64
2019-05-10T07:51:45.770Z,100185.19
2019-05-10T07:54:50.088Z,100182.98
2019-05-10T07:57:58.990Z,100188.52
2019-05-10T08:01:00.381Z,100199.05
2019-05-10T08:04:04.672Z,100190.80
2019-05-10T08:07:10.473Z,100217.31
2019-05-10T08:10:15.131Z,100217.31
2019-05-10T08:13:23.320Z,100226.30
2019-05-10T08:16:25.406Z,100205.67
2019-05-10T08:19:32.779Z,100224.77
2019-05-10T08:22:41.442Z,100233.73
2019-05-10T08:25:46.759Z,100244.45
2019-05-10T08:28:47.761Z,100246.83
2019-05-10T08:31:55.691Z,100252.45
2019-05-10T08:34:58.075Z,100254.95
2019-05-10T08:38:04.535Z,100247.72
2019-05-10T08:41:14.677Z,100249.77
2019-05-10T08:44:19.276Z,100249.77
2019-05-10T08:47:27.210Z,100253.72
2019-05-10T08:50:44.046Z,100259.05
2019-05-10T08:53:32.994Z,100256.76
2019-05-10T08:56:37.256Z,100266.50
2019-05-10T08:59:42.685Z,100266.13
2019-05-10T09:02:47.104Z,100273.53
2019-05-10T09:05:52.505Z,100281.78
2019-05-10T09:09:01.517Z,100281.78
2019-05-10T09:12:07.366Z,100293.12
2019-05-10T09:15:10.187Z,100294.42
2019-05-10T09:18:15.057Z,100295.63
2019-05-10T09:21:19.376Z,100305.91
2019-05-10T09:24:23.697Z,100309.98
2019-05-10T09:27:29.072Z,100317.23
2019-05-10T09:30:35.772Z,100322.28
2019-05-10T09:33:42.951Z,100322.28
2019-05-10T09:36:47.165Z,100329.00
2019-05-10T09:39:54.929Z,100338.09
2019-05-10T09:42:59.474Z,100334.31
2019-05-10T09:46:03.669Z,100348.72
2019-05-10T09:49:15.794Z,100358.19
2019-05-10T09:52:18.302Z,100369.09
2019-05-10T09:55:20.105Z,100367.05
2019-05-10T09:58:24.421Z,100371.94
2019-05-10T10:01:28.887Z,100374.06
2019-05-10T10:04:33.256Z,100367.80
2019-05-10T10:07:37.565Z,100375.69
2019-05-10T10:10:42.062Z,100383.61
2019-05-10T10:13:51.997Z,100391.09
2019-05-10T10:16:58.251Z,100386.53
2019-05-10T10:19:58.430Z,100391.33
2019-05-10T10:23:02.777Z,100394.24
2019-05-10T10:26:07.312Z,100395.58
2019-05-10T10:29:11.625Z,100408.05
2019-05-10T10:32:15.908Z,100413.44
2019-05-10T10:35:26.517Z,100404.84
2019-05-10T10:38:30.657Z,100404.84
2019-05-10T10:41:32.221Z,100412.45
2019-05-10T10:44:37.134Z,100415.24
2019-05-10T10:47:41.501Z,100420.11
2019-05-10T10:50:52.693Z,100425.43
2019-05-10T10:53:54.583Z,100424.86
2019-05-10T10:56:59.671Z,100430.60
2019-05-10T11:00:03.878Z,100429.59
2019-05-10T11:03:08.197Z,100436.69
2019-05-10T11:06:15.362Z,100436.69
2019-05-10T11:09:20.592Z,100443.76
2019-05-10T11:12:24.542Z,100448.51
2019-05-10T11:15:35.579Z,100452.75
2019-05-10T11:18:35.046Z,100459.11
2019-05-10T11:21:41.523Z,100468.91
2019-05-10T11:24:45.323Z,100468.91
2019-05-10T11:27:53.913Z,100479.06
2019-05-10T11:30:55.620Z,100475.45
2019-05-10T11:34:01.567Z,100483.83
2019-05-10T11:37:05.957Z,100483.14
2019-05-10T11:40:11.369Z,100479.34
2019-05-10T11:43:17.278Z,100486.37
2019-05-10T11:46:23.799Z,100481.25
2019-05-10T11:49:30.615Z,100480.23
2019-05-10T11:52:34.725Z,100481.70
2019-05-10T11:55:43.030Z,100486.27
2019-05-10T11:58:53.154Z,100486.02
2019-05-10T12:01:57.930Z,100491.17
2019-05-10T12:05:01.221Z,100495.70
2019-05-10T12:08:04.220Z,100489.11
2019-05-10T12:14:14.503Z,100500.03
2019-05-10T12:17:18.814Z,100500.34
2019-05-10T12:20:39.543Z,100507.98
2019-05-10T12:23:31.471Z,100508.88
2019-05-10T12:26:50.632Z,100500.03
2019-05-10T12:29:41.085Z,100521.05
2019-05-10T12:32:55.706Z,100523.39
2019-05-10T12:35:51.443Z,100531.60
2019-05-10T12:38:56.719Z,100528.13
2019-05-10T12:42:01.720Z,100531.74
2019-05-10T12:45:06.540Z,100536.64
2019-05-10T12:48:10.809Z,100540.97
2019-05-10T12:51:16.335Z,100542.83
2019-05-10T12:54:23.967Z,100549.39
2019-05-10T12:57:26.988Z,100556.16
2019-05-10T13:00:31.264Z,100560.17
2019-05-10T13:03:35.551Z,100562.66
2019-05-10T13:06:39.926Z,100572.77
2019-05-10T13:09:44.244Z,100579.70
2019-05-10T13:12:48.567Z,100578.11
2019-05-10T13:15:52.865Z,100568.16
2019-05-10T13:18:57.151Z,100589.30
2019-05-10T13:22:01.441Z,100590.58
2019-05-10T13:25:06.032Z,100596.03
2019-05-10T13:28:11.427Z,100609.09
2019-05-10T13:31:16.120Z,100609.33
2019-05-10T13:34:24.280Z,100618.95
2019-05-10T13:37:27.808Z,100615.12
2019-05-10T13:40:32.094Z,100624.14
2019-05-10T13:43:36.393Z,100628.44
2019-05-10T13:46:40.696Z,100632.02
2019-05-10T13:49:48.503Z,100632.02
2019-05-10T13:52:50.994Z,100635.50
2019-05-10T13:55:55.295Z,100648.81
2019-05-10T13:59:13.957Z,100657.42
2019-05-10T14:02:05.623Z,100657.31
2019-05-10T14:05:17.549Z,100663.38
2019-05-10T14:08:19.402Z,100663.45
2019-05-10T14:11:23.720Z,100662.53
2019-05-10T14:14:28.009Z,100672.06
2019-05-10T14:17:32.298Z,100680.63
2019-05-10T14:20:36.575Z,100678.92
2019-05-10T14:23:40.859Z,100687.02
2019-05-10T14:26:45.156Z,100685.37
2019-05-10T14:29:49.462Z,100696.70
2019-05-10T14:32:53.764Z,100694.11
2019-05-10T14:36:01.074Z,100690.87
2019-05-10T14:39:06.341Z,100698.03
2019-05-10T14:42:10.629Z,100689.73
2019-05-10T14:45:15.032Z,100707.54
2019-05-10T14:48:28.002Z,100700.33
2019-05-10T14:51:40.410Z,100711.98
2019-05-10T14:54:43.253Z,100710.53
2019-05-10T14:57:37.405Z,100714.63
2019-05-10T15:00:41.667Z,100716.98
2019-05-10T15:03:47.471Z,100717.00
2019-05-10T15:06:51.858Z,100723.98
2019-05-10T15:10:00.172Z,100732.49
2019-05-10T15:13:02.188Z,100732.21
2019-05-10T15:16:09.656Z,100741.13
2019-05-10T15:19:12.511Z,100740.85
2019-05-10T15:22:18.482Z,100745.34
2019-05-10T15:25:22.783Z,100750.77
2019-05-10T15:28:27.054Z,100750.05
2019-05-10T15:31:31.355Z,100757.20
2019-05-10T15:34:35.628Z,100756.85
2019-05-10T15:37:46.000Z,100757.97
2019-05-10T15:40:46.136Z,100772.16
2019-05-10T15:43:53.554Z,100773.70
2019-05-10T15:46:56.349Z,100777.28
2019-05-10T15:50:01.658Z,100775.91
2019-05-10T15:53:06.088Z,100787.53
2019-05-10T15:56:10.379Z,100787.88
2019-05-10T15:59:19.218Z,100789.09
2019-05-10T16:02:20.619Z,100795.12
2019-05-10T16:05:42.095Z,100795.12
2019-05-10T16:08:32.049Z,100798.73
2019-05-10T16:11:36.415Z,100801.30
2019-05-10T16:14:41.189Z,100801.34
2019-05-10T16:17:46.699Z,100802.63
2019-05-10T16:20:50.989Z,100805.11
2019-05-10T16:23:55.276Z,100809.38
2019-05-10T16:27:01.562Z,100815.20
2019-05-10T16:30:06.189Z,100815.80
2019-05-10T16:33:15.605Z,100812.38
2019-05-10T16:36:16.508Z,100824.41
2019-05-10T16:39:20.808Z,100824.41
2019-05-10T16:42:27.990Z,100820.04
2019-05-10T16:45:31.197Z,100820.11
2019-05-10T16:48:35.475Z,100828.31
2019-05-10T16:51:42.461Z,100824.75
2019-05-10T16:54:45.764Z,100821.26
2019-05-10T16:57:50.048Z,100824.25
2019-05-10T17:00:54.320Z,100825.78
2019-05-10T17:04:00.339Z,100834.70
2019-05-10T17:07:04.617Z,100845.38
2019-05-10T17:10:08.906Z,100841.30
2019-05-10T17:13:13.182Z,100832.25
2019-05-10T17:16:19.284Z,100835.42
2019-05-10T17:19:27.979Z,100845.00
2019-05-10T17:22:29.581Z,100845.00
2019-05-10T17:25:35.477Z,100854.47
2019-05-10T17:28:39.933Z,100854.47
2019-05-10T17:31:45.681Z,100851.54
2019-05-10T17:34:50.233Z,100855.11
2019-05-10T17:37:54.582Z,100859.58
2019-05-10T17:40:58.865Z,100863.28
2019-05-10T17:44:03.206Z,100860.29
2019-05-10T17:47:07.516Z,100865.36
2019-05-10T17:50:11.992Z,100868.23
2019-05-10T17:53:16.297Z,100878.66
2019-05-10T17:56:20.632Z,100880.23
2019-05-10T17:59:24.935Z,100879.88
2019-05-10T18:02:29.218Z,100878.84
2019-05-10T18:05:33.521Z,100886.69
2019-05-10T18:08:37.830Z,100886.78
2019-05-10T18:11:42.873Z,100901.08
2019-05-10T18:14:50.166Z,100900.50
2019-05-10T18:17:57.522Z,100906.47
2019-05-10T18:21:00.185Z,100915.91
2019-05-10T18:24:04.479Z,100917.64
2019-05-10T18:27:08.804Z,100922.30
2019-05-10T18:30:13.409Z,100929.79
2019-05-10T18:33:17.775Z,100928.58
2019-05-10T18:36:24.799Z,100935.80
2019-05-10T18:39:28.080Z,100936.72
2019-05-10T18:42:32.395Z,100934.59
2019-05-10T18:45:36.693Z,100931.64
2019-05-10T18:48:40.988Z,100939.73
2019-05-10T18:51:45.336Z,100949.56
2019-05-10T18:54:49.649Z,100953.06
2019-05-10T18:57:53.977Z,100949.70
2019-05-10T19:01:00.550Z,100949.36
2019-05-10T19:04:07.274Z,100952.96
2019-05-10T19:07:10.585Z,100953.91
2019-05-10T19:10:14.917Z,100959.31
2019-05-10T19:13:19.642Z,100959.43
2019-05-10T19:16:25.965Z,100958.67
2019-05-10T19:19:35.223Z,100964.50
2019-05-10T19:22:41.267Z,100966.33
2019-05-10T19:25:45.664Z,100975.21
2019-05-10T19:28:48.663Z,100977.92
2019-05-10T19:31:53.242Z,100986.77
2019-05-10T19:34:59.000Z,100987.74
2019-05-10T19:38:03.528Z,100988.70
2019-05-10T19:41:08.055Z,100992.28
2019-05-10T19:44:12.417Z,100993.71
2019-05-10T19:47:18.173Z,101003.44
2019-05-10T19:50:30.323Z,101002.58
2019-05-10T19:53:29.015Z,101006.59
2019-05-10T19:56:36.591Z,101009.41
2019-05-10T19:59:43.919Z,101008.23
2019-05-10T20:02:47.167Z,101012.69
2019-05-10T20:05:51.551Z,101017.16
2019-05-10T20:08:55.907Z,101023.37
2019-05-10T20:12:00.305Z,101020.31
2019-05-10T20:15:04.831Z,101014.67
2019-05-10T20:18:09.233Z,101024.82
2019-05-10T20:21:13.555Z,101020.89
2019-05-10T20:24:17.852Z,101028.34
2019-05-10T20:27:22.656Z,101030.52
2019-05-10T20:30:26.937Z,101029.57
2019-05-10T20:33:31.241Z,101028.70
2019-05-10T20:36:35.551Z,101036.22
2019-05-10T20:39:39.838Z,101037.56
2019-05-10T20:42:47.155Z,101044.63
2019-05-10T20:45:51.467Z,101044.20
2019-05-10T20:48:55.783Z,101052.67
2019-05-10T20:52:00.126Z,101054.91
2019-05-10T20:55:04.552Z,101051.39
2019-05-10T20:58:08.907Z,101057.59
2019-05-10T21:01:13.167Z,101058.02
2019-05-10T21:04:17.457Z,101059.84
2019-05-10T21:07:21.746Z,101059.39
2019-05-10T21:10:26.017Z,101062.08
2019-05-10T21:13:30.305Z,101066.06
2019-05-10T21:16:34.584Z,101063.36
2019-05-10T21:19:38.863Z,101068.20
2019-05-10T21:22:43.139Z,101070.81
2019-05-10T21:25:47.432Z,101073.92
2019-05-10T21:28:51.710Z,101073.92
2019-05-10T21:31:55.983Z,101071.70
2019-05-10T21:35:00.264Z,101069.98
2019-05-10T21:38:04.548Z,101074.38
2019-05-10T21:41:08.828Z,101078.35
2019-05-10T21:44:13.116Z,101074.45
2019-05-10T21:47:17.400Z,101078.95
2019-05-10T21:50:21.683Z,101078.53
2019-05-10T21:53:25.956Z,101078.59
2019-05-10T21:56:30.235Z,101080.38
2019-05-10T21:59:34.496Z,101087.86
2019-05-10T22:02:38.767Z,101097.15
2019-05-10T22:05:43.146Z,101090.97
2019-05-10T22:08:49.759Z,101094.08
2019-05-10T22:11:53.418Z,101097.59
2019-05-10T22:14:57.689Z,101089.27
2019-05-10T22:18:21.046Z,101096.77
2019-05-10T22:21:26.105Z,101095.02
2019-05-10T22:24:30.377Z,101093.73
2019-05-10T22:27:34.683Z,101099.90
2019-05-10T22:30:39.062Z,101103.84
2019-05-10T22:33:43.340Z,101112.22
2019-05-10T22:36:47.644Z,101105.63
2019-05-10T22:39:51.918Z,101109.17
2019-05-10T22:42:56.208Z,101116.20
2019-05-10T22:46:00.501Z,101115.33
2019-05-10T22:49:04.786Z,101118.82
2019-05-10T22:52:09.073Z,101121.02
2019-05-10T22:55:13.457Z,101125.86
2019-05-10T22:58:17.797Z,101129.80
2019-05-10T23:01:22.084Z,101128.03
2019-05-10T23:04:26.355Z,101135.54
2019-05-10T23:07:30.694Z,101136.01
2019-05-10T23:10:35.003Z,101140.38
2019-05-10T23:13:39.293Z,101143.92
2019-05-10T23:16:43.585Z,101149.20
2019-05-10T23:19:47.876Z,101150.94
2019-05-10T23:22:52.170Z,101143.91
2019-05-10T23:25:56.481Z,101139.09
2019-05-10T23:29:00.766Z,101136.83
2019-05-10T23:32:05.060Z,101136.40
2019-05-10T23:35:09.458Z,101136.84
2019-05-10T23:38:13.732Z,101136.38
2019-05-10T23:41:18.016Z,101139.89
2019-05-10T23:44:22.297Z,101139.02
2019-05-10T23:47:26.632Z,101139.89
2019-05-10T23:50:30.914Z,101149.13
2019-05-10T23:53:35.194Z,101149.52
2019-05-10T23:56:39.477Z,101144.71
2019-05-10T23:59:44.046Z,101150.42
